createdAt,value
2022-10-05T04:46:30.939Z,9.42
2022-10-05T04:47:27.820Z,9.46
2022-10-05T04:48:26.266Z,9.41
2022-10-05T04:49:14.208Z,9.36
2022-10-05T04:50:06.509Z,9.28
2022-10-05T04:50:45.501Z,9.34
2022-10-05T04:51:45.620Z,9.33
2022-10-05T04:52:57.003Z,9.41
2022-10-05T04:53:40.675Z,9.34
2022-10-05T04:54:46.410Z,9.28
2022-10-05T04:55:31.931Z,9.20
2022-10-05T04:56:12.881Z,9.13
2022-10-05T04:57:16.006Z,9.25
2022-10-05T04:57:56.798Z,9.24
2022-10-05T04:58:56.695Z,9.26
2022-10-05T05:00:11.213Z,9.32
2022-10-05T05:01:20.909Z,9.25
2022-10-05T05:02:16.757Z,9.33
2022-10-05T05:03:35.669Z,9.27
2022-10-05T05:04:28.529Z,9.17
2022-10-05T05:05:53.166Z,9.17
2022-10-05T05:06:48.524Z,9.15
2022-10-05T05:07:54.299Z,9.15
2022-10-05T05:09:07.138Z,9.11
2022-10-05T05:10:28.964Z,9.16
2022-10-05T05:11:53.198Z,9.16
2022-10-05T05:13:02.164Z,9.12
2022-10-05T05:14:14.358Z,9.10
2022-10-05T05:15:07.326Z,9.05
2022-10-05T05:16:22.862Z,8.95
2022-10-05T05:17:29.538Z,8.98
2022-10-05T05:18:36.323Z,9.04
2022-10-05T05:19:39.487Z,8.98
2022-10-05T05:20:43.723Z,9.05
2022-10-05T05:22:05.933Z,9.12
2022-10-05T05:22:47.930Z,9.16
2022-10-05T05:23:45.789Z,9.15
2022-10-05T05:24:46.402Z,9.20
2022-10-05T05:25:27.466Z,9.16
2022-10-05T05:26:23.706Z,9.12
2022-10-05T05:27:16.157Z,9.18
2022-10-05T05:27:55.109Z,9.19
2022-10-05T05:28:44.706Z,9.15
2022-10-05T05:29:34.397Z,9.16
2022-10-05T05:30:25.119Z,9.15
2022-10-05T05:31:43.935Z,9.20
2022-10-05T05:32:40.173Z,9.20
2022-10-05T05:33:35.947Z,9.16
2022-10-05T05:34:46.576Z,9.23
2022-10-05T05:35:27.191Z,9.13
2022-10-05T05:36:55.601Z,9.19
2022-10-05T05:38:20.963Z,9.27
2022-10-05T05:39:26.250Z,9.20
2022-10-05T05:40:12.874Z,9.18
2022-10-05T05:41:13.017Z,9.21
2022-10-05T05:42:00.829Z,9.24
2022-10-05T05:42:54.592Z,9.22
2022-10-05T05:43:45.300Z,9.20
2022-10-05T05:44:24.363Z,9.24
2022-10-05T05:45:01.110Z,9.17
2022-10-05T05:45:49.650Z,9.20
2022-10-05T05:47:01.594Z,9.25
2022-10-05T05:47:40.394Z,9.21
2022-10-05T05:48:32.408Z,9.18
2022-10-05T05:49:36.548Z,9.17
2022-10-05T05:50:58.533Z,9.18
2022-10-05T05:51:39.701Z,9.26
2022-10-05T05:52:39.553Z,9.31
2022-10-05T05:53:23.934Z,9.31
2022-10-05T05:54:22.869Z,9.34
2022-10-05T05:54:58.962Z,9.28
2022-10-05T05:55:40.668Z,9.25
2022-10-05T05:56:21.037Z,9.32
2022-10-05T05:57:23.647Z,9.28
2022-10-05T05:58:11.794Z,9.33
2022-10-05T05:59:05.338Z,9.41
2022-10-05T05:59:54.853Z,9.26
2022-10-05T06:00:38.133Z,9.34
2022-10-05T06:01:32.273Z,9.42
2022-10-05T06:02:11.607Z,9.35
2022-10-05T06:02:52.933Z,9.36
2022-10-05T06:03:28.926Z,9.37
2022-10-05T06:04:15.587Z,9.34
2022-10-05T06:04:55.039Z,9.40
2022-10-05T06:05:47.107Z,9.39
2022-10-05T06:06:22.966Z,9.41
2022-10-05T06:06:58.151Z,9.46
2022-10-05T06:07:31.656Z,9.49
2022-10-05T06:08:56.934Z,9.63
2022-10-05T06:09:41.566Z,9.58
2022-10-05T06:10:35.145Z,9.60
2022-10-05T06:11:14.750Z,9.69
2022-10-05T06:12:09.710Z,9.73
2022-10-05T06:12:49.660Z,9.74
2022-10-05T06:13:37.774Z,9.75
2022-10-05T06:14:19.078Z,9.71
2022-10-05T06:14:58.359Z,9.73
2022-10-05T06:15:38.866Z,9.80
2022-10-05T06:16:25.724Z,9.82
2022-10-05T06:17:06.712Z,9.80
2022-10-05T06:17:45.860Z,9.72
2022-10-05T06:18:21.687Z,9.78
2022-10-05T06:19:03.284Z,9.86
2022-10-05T06:19:36.955Z,9.88
2022-10-05T06:20:28.676Z,9.88
2022-10-05T06:21:05.899Z,9.90
2022-10-05T06:22:04.289Z,9.81
2022-10-05T06:22:47.431Z,9.82
2022-10-05T06:23:45.055Z,9.80
2022-10-05T06:24:35.959Z,9.86
2022-10-05T06:25:13.605Z,9.80
2022-10-05T06:26:18.401Z,9.88
2022-10-05T06:27:24.882Z,10.08
2022-10-05T06:28:12.515Z,9.98
2022-10-05T06:28:53.363Z,10.03
2022-10-05T06:29:40.899Z,10.06
2022-10-05T06:30:14.265Z,10.10
2022-10-05T06:31:11.227Z,10.15
2022-10-05T06:32:19.596Z,10.21
2022-10-05T06:32:57.540Z,10.22
2022-10-05T06:33:56.887Z,10.25
2022-10-05T06:34:52.265Z,10.23
2022-10-05T06:35:57.061Z,10.18
2022-10-05T06:36:43.315Z,10.15
2022-10-05T06:37:42.886Z,10.12
2022-10-05T06:38:39.093Z,10.15
2022-10-05T06:39:34.940Z,10.10
2022-10-05T06:40:45.446Z,10.17
2022-10-05T06:41:38.314Z,10.18
2022-10-05T06:42:16.001Z,10.22
2022-10-05T06:42:59.697Z,10.25
2022-10-05T06:44:14.635Z,10.30
2022-10-05T06:45:11.475Z,10.30
2022-10-05T06:45:55.024Z,10.36
2022-10-05T06:46:34.782Z,10.45
2022-10-05T06:47:29.319Z,10.44
2022-10-05T06:49:01.896Z,10.57
2022-10-05T06:49:59.578Z,10.56
2022-10-05T06:50:44.982Z,10.58
2022-10-05T06:51:27.960Z,10.63
2022-10-05T06:52:20.684Z,10.67
2022-10-05T06:54:04.142Z,10.76
2022-10-05T06:54:43.358Z,10.76
2022-10-05T06:55:24.346Z,10.82
2022-10-05T06:56:09.882Z,10.80
2022-10-05T06:57:16.512Z,10.94
2022-10-05T06:58:20.984Z,11.00
2022-10-05T06:59:19.678Z,10.97
2022-10-05T07:00:00.751Z,11.01
2022-10-05T07:00:57.350Z,11.02
2022-10-05T07:01:57.687Z,11.09
2022-10-05T07:03:05.509Z,11.09
2022-10-05T07:04:02.655Z,11.13
2022-10-05T07:05:12.319Z,11.15
2022-10-05T07:05:56.917Z,11.15
2022-10-05T07:06:57.548Z,11.28
2022-10-05T07:08:01.387Z,11.41
2022-10-05T07:08:35.985Z,11.41
2022-10-05T07:09:28.999Z,11.34
2022-10-05T07:10:48.597Z,11.50
2022-10-05T07:12:37.261Z,11.58
2022-10-05T07:13:39.126Z,11.68
2022-10-05T07:14:43.237Z,11.78
2022-10-05T07:15:36.916Z,11.72
2022-10-05T07:17:15.629Z,11.92
2022-10-05T07:18:34.137Z,11.99
2022-10-05T07:19:32.856Z,12.05
2022-10-05T07:20:21.678Z,12.14
2022-10-05T07:21:39.647Z,12.22
2022-10-05T07:22:23.284Z,12.31
2022-10-05T07:23:14.342Z,12.38
2022-10-05T07:24:03.617Z,12.45
2022-10-05T07:24:45.145Z,12.54
2022-10-05T07:25:21.923Z,12.58
2022-10-05T07:26:37.734Z,12.76
2022-10-05T07:27:23.317Z,12.82
2022-10-05T07:28:09.769Z,12.99
2022-10-05T07:28:48.437Z,13.08
2022-10-05T07:29:34.416Z,13.15
2022-10-05T07:30:10.559Z,13.17
2022-10-05T07:31:02.157Z,13.33
2022-10-05T07:32:06.414Z,13.59
2022-10-05T07:33:01.242Z,13.68
2022-10-05T07:34:07.119Z,13.83
2022-10-05T07:35:01.672Z,13.98
2022-10-05T07:36:09.514Z,14.13
2022-10-05T07:37:32.964Z,14.39
2022-10-05T07:38:23.582Z,14.50
2022-10-05T07:39:13.038Z,14.63
2022-10-05T07:40:15.343Z,14.72
2022-10-05T07:40:57.355Z,14.85
2022-10-05T07:41:43.712Z,14.88
2022-10-05T07:42:51.860Z,15.04
2022-10-05T07:44:01.645Z,15.24
2022-10-05T07:44:41.557Z,15.31
2022-10-05T07:46:13.249Z,15.30
2022-10-05T07:47:13.265Z,15.46
2022-10-05T07:47:55.606Z,15.53
2022-10-05T07:48:52.156Z,15.56
2022-10-05T07:49:26.675Z,15.60
2022-10-05T07:50:26.072Z,15.70
2022-10-05T07:51:25.883Z,15.77
2022-10-05T07:52:12.116Z,15.67
2022-10-05T07:52:55.943Z,15.67
2022-10-05T07:54:34.914Z,15.81
2022-10-05T07:55:12.473Z,15.76
2022-10-05T07:55:51.560Z,15.63
2022-10-05T07:56:30.292Z,15.72
2022-10-05T07:57:11.900Z,15.87
2022-10-05T07:58:17.594Z,15.98
2022-10-05T07:59:01.715Z,16.10
2022-10-05T07:59:50.197Z,16.21
2022-10-05T08:00:38.028Z,16.24
2022-10-05T08:01:28.242Z,16.30
2022-10-05T08:02:29.600Z,16.42
2022-10-05T08:03:07.193Z,16.48
2022-10-05T08:04:05.997Z,16.62
2022-10-05T08:05:10.782Z,16.64
2022-10-05T08:05:45.344Z,16.71
2022-10-05T08:06:52.492Z,16.76
2022-10-05T08:08:49.233Z,17.00
2022-10-05T08:09:33.403Z,16.99
2022-10-05T08:10:23.320Z,17.10
2022-10-05T08:11:24.829Z,17.21
2022-10-05T08:12:20.644Z,17.22
2022-10-05T08:13:12.417Z,17.37
2022-10-05T08:13:55.281Z,17.41
2022-10-05T08:14:46.641Z,17.50
2022-10-05T08:15:23.633Z,17.54
2022-10-05T08:16:03.267Z,17.64
2022-10-05T08:16:38.688Z,17.67
2022-10-05T08:18:00.103Z,17.85
2022-10-05T08:18:57.267Z,18.01
2022-10-05T08:19:43.595Z,18.07
2022-10-05T08:20:41.331Z,18.06
2022-10-05T08:21:16.402Z,18.12
2022-10-05T08:21:55.629Z,18.19
2022-10-05T08:22:41.937Z,18.24
2022-10-05T08:23:40.797Z,18.34
2022-10-05T08:24:49.238Z,18.40
2022-10-05T08:25:38.630Z,18.32
2022-10-05T08:26:34.628Z,18.39
2022-10-05T08:27:33.329Z,18.46
2022-10-05T08:28:15.276Z,18.58
2022-10-05T08:29:29.797Z,18.60
2022-10-05T08:30:06.743Z,18.68
2022-10-05T08:31:18.788Z,18.78
2022-10-05T08:31:56.334Z,18.76
2022-10-05T08:32:35.639Z,18.64
2022-10-05T08:33:17.631Z,18.75
2022-10-05T08:34:13.245Z,18.72
2022-10-05T08:34:51.268Z,18.55
2022-10-05T08:35:28.845Z,18.60
2022-10-05T08:36:12.823Z,18.63
2022-10-05T08:37:04.086Z,18.36
2022-10-05T08:37:42.536Z,18.14
2022-10-05T08:38:32.279Z,17.97
2022-10-05T08:39:16.128Z,17.84
2022-10-05T08:40:19.001Z,17.75
2022-10-05T08:41:42.834Z,17.02
2022-10-05T08:42:52.832Z,17.10
2022-10-05T08:44:11.125Z,16.83
2022-10-05T08:45:31.001Z,16.94
2022-10-05T08:46:35.991Z,16.97
2022-10-05T08:47:19.909Z,16.63
2022-10-05T08:48:43.342Z,16.73
2022-10-05T08:50:10.853Z,16.92
2022-10-05T08:51:06.841Z,16.57
2022-10-05T08:52:11.472Z,16.92
2022-10-05T08:53:21.812Z,16.99
2022-10-05T08:54:50.602Z,16.89
2022-10-05T08:55:30.267Z,16.94
2022-10-05T08:56:40.765Z,16.97
2022-10-05T08:57:46.922Z,17.05
2022-10-05T08:58:27.746Z,17.06
2022-10-05T08:59:19.647Z,17.08
2022-10-05T09:00:20.848Z,17.15
2022-10-05T09:01:04.835Z,17.34
2022-10-05T09:02:05.069Z,17.28
2022-10-05T09:03:16.036Z,17.10
2022-10-05T09:04:19.738Z,17.09
2022-10-05T09:06:00.175Z,17.28
2022-10-05T09:06:46.729Z,17.35
2022-10-05T09:07:50.909Z,17.42
2022-10-05T09:08:47.756Z,17.44
2022-10-05T09:09:38.317Z,17.43
2022-10-05T09:11:13.825Z,17.53
2022-10-05T09:11:51.117Z,17.59
2022-10-05T09:12:56.511Z,17.62
2022-10-05T09:13:49.784Z,17.79
2022-10-05T09:14:31.428Z,17.79
2022-10-05T09:15:26.425Z,17.88
2022-10-05T09:16:35.230Z,17.54
2022-10-05T09:17:25.338Z,17.45
2022-10-05T09:18:49.916Z,17.59
2022-10-05T09:19:24.440Z,17.83
2022-10-05T09:20:36.688Z,18.04
2022-10-05T09:21:32.646Z,18.21
2022-10-05T09:22:38.716Z,18.19
2022-10-05T09:23:46.804Z,18.49
2022-10-05T09:24:48.230Z,18.30
2022-10-05T09:25:43.806Z,18.45
2022-10-05T09:26:40.428Z,18.51
2022-10-05T09:27:18.265Z,18.56
2022-10-05T09:27:57.767Z,18.61
2022-10-05T09:28:49.382Z,18.68
2022-10-05T09:30:15.642Z,18.49
2022-10-05T09:31:21.681Z,18.54
2022-10-05T09:32:28.271Z,18.76
2022-10-05T09:33:33.788Z,18.93
2022-10-05T09:34:33.850Z,19.10
2022-10-05T09:35:39.469Z,19.22
2022-10-05T09:36:48.039Z,19.35
2022-10-05T09:37:55.283Z,19.37
2022-10-05T09:39:21.171Z,19.40
2022-10-05T09:40:41.445Z,19.60
2022-10-05T09:41:38.600Z,19.84
2022-10-05T09:42:35.531Z,19.80
2022-10-05T09:43:47.159Z,19.76
2022-10-05T09:44:50.696Z,19.69
2022-10-05T09:45:44.743Z,19.88
2022-10-05T09:47:10.894Z,19.97
2022-10-05T09:48:13.153Z,19.92
2022-10-05T09:49:03.556Z,19.64
2022-10-05T09:50:05.839Z,19.73
2022-10-05T09:50:59.772Z,19.72
2022-10-05T09:51:52.529Z,19.85
2022-10-05T09:52:55.088Z,19.99
2022-10-05T09:54:14.186Z,20.15
2022-10-05T09:55:26.710Z,20.29
2022-10-05T09:56:26.173Z,20.37
2022-10-05T09:57:16.491Z,20.32
2022-10-05T09:58:16.094Z,20.51
2022-10-05T09:59:52.651Z,20.61
2022-10-05T10:00:34.403Z,20.49
2022-10-05T10:01:32.749Z,20.63
2022-10-05T10:02:20.727Z,20.44
2022-10-05T10:03:14.800Z,20.53
2022-10-05T10:04:28.707Z,20.46
2022-10-05T10:05:31.932Z,20.38
2022-10-05T10:06:22.801Z,20.29
2022-10-05T10:07:42.233Z,20.46
2022-10-05T10:08:25.599Z,20.60
2022-10-05T10:09:27.132Z,20.62
2022-10-05T10:10:48.508Z,20.78
2022-10-05T10:11:44.777Z,20.83
2022-10-05T10:12:32.592Z,20.97
2022-10-05T10:13:34.777Z,21.06
2022-10-05T10:14:25.442Z,21.00
2022-10-05T10:15:09.444Z,20.78
2022-10-05T10:16:19.080Z,20.92
2022-10-05T10:17:22.884Z,20.97
2022-10-05T10:18:22.975Z,20.91
2022-10-05T10:19:25.097Z,21.11
2022-10-05T10:20:03.012Z,21.29
2022-10-05T10:21:16.966Z,21.56
2022-10-05T10:22:17.645Z,21.66
2022-10-05T10:23:18.571Z,21.65
2022-10-05T10:24:08.225Z,21.87
2022-10-05T10:25:00.849Z,21.99
2022-10-05T10:26:04.979Z,22.08
2022-10-05T10:27:10.173Z,22.16
2022-10-05T10:27:54.638Z,22.17
2022-10-05T10:28:43.503Z,22.26
2022-10-05T10:29:57.932Z,22.35
2022-10-05T10:31:07.027Z,22.29
2022-10-05T10:32:01.688Z,22.45
2022-10-05T10:32:54.617Z,22.54
2022-10-05T10:34:29.940Z,22.60
2022-10-05T10:35:13.847Z,22.74
2022-10-05T10:36:16.078Z,22.82
2022-10-05T10:37:28.870Z,22.93
2022-10-05T10:38:23.988Z,22.94
2022-10-05T10:39:04.683Z,22.97
2022-10-05T10:39:54.648Z,22.97
2022-10-05T10:41:19.081Z,22.80
2022-10-05T10:42:08.952Z,22.66
2022-10-05T10:42:56.300Z,22.65
2022-10-05T10:43:50.080Z,22.62
2022-10-05T10:44:49.661Z,22.69
2022-10-05T10:46:03.448Z,22.62
2022-10-05T10:46:59.150Z,22.58
2022-10-05T10:47:42.451Z,22.64
2022-10-05T10:49:39.441Z,22.62
2022-10-05T10:50:40.548Z,22.78
2022-10-05T10:52:06.041Z,22.88
2022-10-05T10:53:21.033Z,22.85
2022-10-05T10:54:13.836Z,22.87
2022-10-05T10:55:07.006Z,22.96
2022-10-05T10:56:02.021Z,23.01
2022-10-05T10:57:01.164Z,23.19
2022-10-05T10:58:03.749Z,23.13
2022-10-05T10:58:49.928Z,23.22
2022-10-05T10:59:43.538Z,23.33
2022-10-05T11:00:27.900Z,23.12
2022-10-05T11:01:31.016Z,23.29
2022-10-05T11:02:46.913Z,23.30
2022-10-05T11:04:19.390Z,23.23
2022-10-05T11:05:47.959Z,23.33
2022-10-05T11:06:42.546Z,23.34
2022-10-05T11:07:49.805Z,23.34
2022-10-05T11:08:54.029Z,23.49
2022-10-05T11:09:59.212Z,23.50
2022-10-05T11:11:31.013Z,23.28
2022-10-05T11:12:23.402Z,23.20
2022-10-05T11:13:31.172Z,23.40
2022-10-05T11:14:56.123Z,23.57
2022-10-05T11:15:52.218Z,23.71
2022-10-05T11:17:09.951Z,23.81
2022-10-05T11:18:12.268Z,23.76
2022-10-05T11:19:20.378Z,23.52
2022-10-05T11:20:18.240Z,23.31
2022-10-05T11:21:23.125Z,23.46
2022-10-05T11:22:43.257Z,23.48
2022-10-05T11:24:16.110Z,23.64
2022-10-05T11:24:59.888Z,23.57
2022-10-05T11:26:15.458Z,23.12
2022-10-05T11:27:34.173Z,23.04
2022-10-05T11:28:46.334Z,23.02
2022-10-05T11:29:53.466Z,23.07
2022-10-05T11:31:19.433Z,22.92
2022-10-05T11:32:07.789Z,22.84
2022-10-05T11:33:23.354Z,22.61
2022-10-05T11:34:03.925Z,22.66
2022-10-05T11:35:24.707Z,22.71
2022-10-05T11:36:30.905Z,22.63
2022-10-05T11:37:12.617Z,22.68
2022-10-05T11:38:18.778Z,22.39
2022-10-05T11:39:22.758Z,22.57
2022-10-05T11:40:29.722Z,22.46
2022-10-05T11:41:33.011Z,22.71
2022-10-05T11:42:49.212Z,22.68
2022-10-05T11:43:29.893Z,22.77
2022-10-05T11:44:36.013Z,22.67
2022-10-05T11:45:46.721Z,22.75
2022-10-05T11:47:00.056Z,22.66
2022-10-05T11:48:25.163Z,22.55
2022-10-05T11:49:27.325Z,22.56
2022-10-05T11:50:06.512Z,22.64
2022-10-05T11:51:34.356Z,22.76
2022-10-05T11:52:32.781Z,22.86
2022-10-05T11:53:24.233Z,22.86
2022-10-05T11:54:20.913Z,22.61
2022-10-05T11:55:24.254Z,22.86
2022-10-05T11:57:08.480Z,23.04
2022-10-05T11:58:09.786Z,23.05
2022-10-05T11:59:20.958Z,23.16
2022-10-05T12:00:10.935Z,23.34
2022-10-05T12:01:06.526Z,23.47
2022-10-05T12:02:27.242Z,23.19
2022-10-05T12:03:27.059Z,23.46
2022-10-05T12:04:29.273Z,23.72
2022-10-05T12:05:18.268Z,23.80
2022-10-05T12:06:17.018Z,23.75
2022-10-05T12:07:09.676Z,23.92
2022-10-05T12:07:49.363Z,24.09
2022-10-05T12:08:51.178Z,24.15
2022-10-05T12:10:22.819Z,24.19
2022-10-05T12:11:12.399Z,24.34
2022-10-05T12:11:57.643Z,24.50
2022-10-05T12:12:38.105Z,24.60
2022-10-05T12:13:35.371Z,24.71
2022-10-05T12:14:33.708Z,24.94
2022-10-05T12:15:24.019Z,24.91
2022-10-05T12:16:35.324Z,25.00
2022-10-05T12:17:17.508Z,25.04
2022-10-05T12:18:10.601Z,24.88
2022-10-05T12:19:29.820Z,25.13
2022-10-05T12:20:20.105Z,25.21
2022-10-05T12:21:27.788Z,25.34
2022-10-05T12:22:15.415Z,25.43
2022-10-05T12:23:07.381Z,25.42
2022-10-05T12:24:12.116Z,25.34
2022-10-05T12:25:33.027Z,25.26
2022-10-05T12:26:58.732Z,25.28
2022-10-05T12:27:43.710Z,25.36
2022-10-05T12:28:30.284Z,25.26
2022-10-05T12:29:09.071Z,25.19
2022-10-05T12:29:51.180Z,25.10
2022-10-05T12:30:51.086Z,25.23
2022-10-05T12:31:41.233Z,25.21
2022-10-05T12:32:29.454Z,25.26
2022-10-05T12:33:07.739Z,25.36
2022-10-05T12:34:18.095Z,25.45
2022-10-05T12:35:48.994Z,25.30
2022-10-05T12:37:03.704Z,25.01
2022-10-05T12:37:48.498Z,24.97
2022-10-05T12:38:38.100Z,25.16
2022-10-05T12:39:45.245Z,25.22
2022-10-05T12:40:29.496Z,25.21
2022-10-05T12:41:17.212Z,25.08
2022-10-05T12:42:09.444Z,24.89
2022-10-05T12:43:04.742Z,25.03
2022-10-05T12:44:02.528Z,25.12
2022-10-05T12:44:55.978Z,25.14
2022-10-05T12:45:59.331Z,24.98
2022-10-05T12:47:29.043Z,24.92
2022-10-05T12:48:29.226Z,24.30
2022-10-05T12:49:19.823Z,24.30
2022-10-05T12:50:24.555Z,24.63
2022-10-05T12:51:25.745Z,24.58
2022-10-05T12:52:07.006Z,24.62
2022-10-05T12:53:09.547Z,24.48
2022-10-05T12:54:20.218Z,24.54
2022-10-05T12:55:01.276Z,24.45
2022-10-05T12:55:57.693Z,24.52
2022-10-05T12:56:58.202Z,24.42
2022-10-05T12:57:42.113Z,24.52
2022-10-05T12:58:26.752Z,24.40
2022-10-05T12:59:01.535Z,24.44
2022-10-05T12:59:45.165Z,24.50
2022-10-05T13:00:22.959Z,24.55
2022-10-05T13:01:37.354Z,24.71
2022-10-05T13:02:47.900Z,24.70
2022-10-05T13:03:40.127Z,24.48
2022-10-05T13:04:17.893Z,24.58
2022-10-05T13:05:22.278Z,24.63
2022-10-05T13:06:12.802Z,24.69
2022-10-05T13:07:13.876Z,24.68
2022-10-05T13:08:17.981Z,24.69
2022-10-05T13:09:08.583Z,24.73
2022-10-05T13:09:55.697Z,24.71
2022-10-05T13:10:42.862Z,24.68
2022-10-05T13:11:33.504Z,24.66
2022-10-05T13:12:21.604Z,24.61
2022-10-05T13:13:01.710Z,24.58
2022-10-05T13:14:07.493Z,24.57
2022-10-05T13:15:10.304Z,24.63
2022-10-05T13:16:01.884Z,24.71
2022-10-05T13:16:55.029Z,24.74
2022-10-05T13:17:42.205Z,24.52
2022-10-05T13:18:44.315Z,24.62
2022-10-05T13:19:47.263Z,24.63
2022-10-05T13:20:29.367Z,24.69
2022-10-05T13:21:09.790Z,24.73
2022-10-05T13:22:21.105Z,24.64
2022-10-05T13:23:22.727Z,24.54
2022-10-05T13:24:00.553Z,24.59
2022-10-05T13:25:01.840Z,24.62
2022-10-05T13:25:40.393Z,24.68
2022-10-05T13:26:26.817Z,24.71
2022-10-05T13:27:15.079Z,24.86
2022-10-05T13:28:06.925Z,24.91
2022-10-05T13:29:03.349Z,25.14
2022-10-05T13:29:42.637Z,24.82
2022-10-05T13:30:20.515Z,24.80
2022-10-05T13:31:20.292Z,24.61
2022-10-05T13:32:00.584Z,24.64
2022-10-05T13:32:40.914Z,24.84
2022-10-05T13:33:40.812Z,24.86
2022-10-05T13:34:44.746Z,24.99
2022-10-05T13:35:37.352Z,25.05
2022-10-05T13:36:39.493Z,25.11
2022-10-05T13:37:34.676Z,25.21
2022-10-05T13:38:18.465Z,25.30
2022-10-05T13:39:22.276Z,25.29
2022-10-05T13:40:05.787Z,25.44
2022-10-05T13:41:14.722Z,25.41
2022-10-05T13:42:26.316Z,25.45
2022-10-05T13:43:16.704Z,25.27
2022-10-05T13:43:59.039Z,25.19
2022-10-05T13:44:54.042Z,25.26
2022-10-05T13:45:37.783Z,25.35
2022-10-05T13:46:33.328Z,25.31
2022-10-05T13:47:37.834Z,25.17
2022-10-05T13:48:46.532Z,25.26
2022-10-05T13:49:37.115Z,25.21
2022-10-05T13:50:19.694Z,25.05
2022-10-05T13:51:07.743Z,25.01
2022-10-05T13:52:06.721Z,25.02
2022-10-05T13:53:05.423Z,25.08
2022-10-05T13:53:49.005Z,25.19
2022-10-05T13:54:43.822Z,25.26
2022-10-05T13:55:34.462Z,25.27
2022-10-05T13:56:49.069Z,25.36
2022-10-05T13:57:45.619Z,25.26
2022-10-05T13:58:41.727Z,25.22
2022-10-05T13:59:32.385Z,25.36
2022-10-05T14:00:13.909Z,25.39
2022-10-05T14:01:07.022Z,25.36
2022-10-05T14:02:05.547Z,25.22
2022-10-05T14:02:40.568Z,25.18
2022-10-05T14:04:04.037Z,25.35
2022-10-05T14:04:51.892Z,25.40
2022-10-05T14:05:31.233Z,25.40
2022-10-05T14:06:30.818Z,25.27
2022-10-05T14:07:34.929Z,25.03
2022-10-05T14:08:06.723Z,25.04
2022-10-05T14:08:52.543Z,25.00
2022-10-05T14:09:33.354Z,25.06
2022-10-05T14:10:14.593Z,25.07
2022-10-05T14:10:48.043Z,25.19
2022-10-05T14:11:31.394Z,25.13
2022-10-05T14:12:03.220Z,25.18
2022-10-05T14:12:42.988Z,25.17
2022-10-05T14:13:30.572Z,25.15
2022-10-05T14:14:16.991Z,25.07
2022-10-05T14:14:50.284Z,25.13
2022-10-05T14:15:30.926Z,25.17
2022-10-05T14:16:23.040Z,25.27
2022-10-05T14:16:58.404Z,25.23
2022-10-05T14:17:44.849Z,25.13
2022-10-05T14:18:26.667Z,25.11
2022-10-05T14:19:18.967Z,25.17
2022-10-05T14:19:57.618Z,25.19
2022-10-05T14:20:34.581Z,25.09
2022-10-05T14:21:19.059Z,25.12
2022-10-05T14:22:24.922Z,25.13
2022-10-05T14:23:11.026Z,25.13
2022-10-05T14:23:43.225Z,25.07
2022-10-05T14:24:44.546Z,25.01
2022-10-05T14:25:18.275Z,24.91
2022-10-05T14:25:54.319Z,24.89
2022-10-05T14:26:26.420Z,24.77
2022-10-05T14:26:59.538Z,24.77
2022-10-05T14:27:36.896Z,24.77
2022-10-05T14:28:28.418Z,24.73
2022-10-05T14:29:37.996Z,24.80
2022-10-05T14:30:12.395Z,24.78
2022-10-05T14:31:17.414Z,24.70
2022-10-05T14:31:55.117Z,24.61
2022-10-05T14:32:32.671Z,24.60
2022-10-05T14:33:04.445Z,24.57
2022-10-05T14:33:37.200Z,24.59
2022-10-05T14:34:36.700Z,24.63
2022-10-05T14:35:12.873Z,24.64
2022-10-05T14:35:51.801Z,24.70
2022-10-05T14:36:36.912Z,24.78
2022-10-05T14:37:22.734Z,24.70
2022-10-05T14:37:58.588Z,24.73
2022-10-05T14:38:52.643Z,24.82
2022-10-05T14:39:27.036Z,24.87
2022-10-05T14:40:22.727Z,24.94
2022-10-05T14:41:17.565Z,24.99
2022-10-05T14:41:51.045Z,24.99
2022-10-05T14:42:26.908Z,24.96
2022-10-05T14:43:18.219Z,24.90
2022-10-05T14:44:05.391Z,24.88
2022-10-05T14:44:37.495Z,24.82
2022-10-05T14:45:16.391Z,24.83
2022-10-05T14:46:09.319Z,24.66
2022-10-05T14:46:55.168Z,24.68
2022-10-05T14:47:31.220Z,24.60
2022-10-05T14:48:11.490Z,24.62
2022-10-05T14:48:46.200Z,24.52
2022-10-05T14:49:26.098Z,24.48
2022-10-05T14:50:17.829Z,24.52
2022-10-05T14:51:03.348Z,24.47
2022-10-05T14:51:36.430Z,24.21
2022-10-05T14:52:34.784Z,24.21
2022-10-05T14:53:21.307Z,24.26
2022-10-05T14:54:03.901Z,24.26
2022-10-05T14:55:08.516Z,24.29
2022-10-05T14:56:01.498Z,24.26
2022-10-05T14:57:10.372Z,24.30
2022-10-05T14:58:23.876Z,24.35
2022-10-05T14:59:29.310Z,24.36
2022-10-05T15:00:16.732Z,24.39
2022-10-05T15:01:26.471Z,24.18
2022-10-05T15:02:23.487Z,24.28
2022-10-05T15:03:43.301Z,24.39
2022-10-05T15:04:21.234Z,24.41
2022-10-05T15:05:17.661Z,24.46
2022-10-05T15:05:54.950Z,24.42
2022-10-05T15:06:40.016Z,24.39
2022-10-05T15:07:22.123Z,24.28
2022-10-05T15:08:20.313Z,24.30
2022-10-05T15:09:22.613Z,24.33
2022-10-05T15:10:12.498Z,24.24
2022-10-05T15:11:26.960Z,24.22
2022-10-05T15:12:02.131Z,24.07
2022-10-05T15:12:44.022Z,24.05
2022-10-05T15:13:20.719Z,24.09
2022-10-05T15:13:53.725Z,24.07
2022-10-05T15:14:38.372Z,24.14
2022-10-05T15:15:29.469Z,24.07
2022-10-05T15:16:14.898Z,24.13
2022-10-05T15:16:53.632Z,24.26
2022-10-05T15:17:40.559Z,24.30
2022-10-05T15:18:37.441Z,24.37
2022-10-05T15:19:40.130Z,24.52
2022-10-05T15:20:45.651Z,24.62
2022-10-05T15:21:45.117Z,24.73
2022-10-05T15:22:32.311Z,24.77
2022-10-05T15:23:52.896Z,24.82
2022-10-05T15:24:44.959Z,24.94
2022-10-05T15:25:37.208Z,25.07
2022-10-05T15:26:38.998Z,25.10
2022-10-05T15:27:30.608Z,25.16
2022-10-05T15:28:41.073Z,25.28
2022-10-05T15:30:09.377Z,25.23
2022-10-05T15:30:54.512Z,25.26
2022-10-05T15:31:45.114Z,25.33
2022-10-05T15:32:43.349Z,25.29
2022-10-05T15:33:40.827Z,25.08
2022-10-05T15:34:58.076Z,25.23
2022-10-05T15:35:40.396Z,25.34
2022-10-05T15:36:29.241Z,25.49
2022-10-05T15:37:48.477Z,25.60
2022-10-05T15:38:27.428Z,25.59
2022-10-05T15:39:16.319Z,25.63
2022-10-05T15:39:57.171Z,25.63
2022-10-05T15:40:39.511Z,25.70
2022-10-05T15:41:58.961Z,25.83
2022-10-05T15:42:38.418Z,25.79
2022-10-05T15:43:23.245Z,25.49
2022-10-05T15:44:29.240Z,25.65
2022-10-05T15:45:33.224Z,25.78
2022-10-05T15:46:38.809Z,25.84
2022-10-05T15:47:42.896Z,25.69
2022-10-05T15:48:29.249Z,25.85
2022-10-05T15:49:37.025Z,25.84
2022-10-05T15:50:28.367Z,25.93
2022-10-05T15:51:33.551Z,25.93
2022-10-05T15:52:17.708Z,25.68
2022-10-05T15:53:02.822Z,25.76
2022-10-05T15:53:48.310Z,25.61
2022-10-05T15:55:09.067Z,25.53
2022-10-05T15:55:55.799Z,25.32
2022-10-05T15:56:38.741Z,25.00
2022-10-05T15:57:30.677Z,25.15
2022-10-05T15:58:17.543Z,25.12
2022-10-05T15:58:55.905Z,25.04
2022-10-05T15:59:58.866Z,25.01
2022-10-05T16:00:44.601Z,24.85
2022-10-05T16:01:31.175Z,24.79
2022-10-05T16:02:14.979Z,24.72
2022-10-05T16:03:46.147Z,24.60
2022-10-05T16:04:25.048Z,24.51
2022-10-05T16:05:12.707Z,24.48
2022-10-05T16:06:07.720Z,24.40
2022-10-05T16:07:10.074Z,24.36
2022-10-05T16:08:08.966Z,24.31
2022-10-05T16:08:54.653Z,24.32
2022-10-05T16:10:14.937Z,24.22
2022-10-05T16:10:46.959Z,24.19
2022-10-05T16:11:56.546Z,24.18
2022-10-05T16:12:42.791Z,24.10
2022-10-05T16:13:23.017Z,24.14
2022-10-05T16:14:28.056Z,24.18
2022-10-05T16:15:26.526Z,24.17
2022-10-05T16:16:21.397Z,24.10
2022-10-05T16:17:06.533Z,24.07
2022-10-05T16:18:04.335Z,24.18
2022-10-05T16:19:09.932Z,24.09
2022-10-05T16:20:03.184Z,24.09
2022-10-05T16:21:00.073Z,24.06
2022-10-05T16:21:52.954Z,23.95
2022-10-05T16:23:04.564Z,23.78
2022-10-05T16:23:45.569Z,23.75
2022-10-05T16:24:56.869Z,23.62
2022-10-05T16:25:53.071Z,23.53
2022-10-05T16:26:28.615Z,23.45
2022-10-05T16:27:17.258Z,23.43
2022-10-05T16:28:24.603Z,23.42
2022-10-05T16:29:14.971Z,23.38
2022-10-05T16:30:10.278Z,23.29
2022-10-05T16:30:58.781Z,23.23
2022-10-05T16:31:52.469Z,23.10
2022-10-05T16:32:38.397Z,23.04
2022-10-05T16:33:19.317Z,22.93
2022-10-05T16:34:11.066Z,22.92
2022-10-05T16:35:16.587Z,22.89
2022-10-05T16:36:22.563Z,22.80
2022-10-05T16:37:24.000Z,22.76
2022-10-05T16:38:34.637Z,22.68
2022-10-05T16:39:36.946Z,22.61
2022-10-05T16:40:20.714Z,22.62
2022-10-05T16:41:08.016Z,22.52
2022-10-05T16:42:23.938Z,22.53
2022-10-05T16:43:23.442Z,22.38
2022-10-05T16:44:36.266Z,22.40
2022-10-05T16:45:44.814Z,22.23
2022-10-05T16:47:00.135Z,22.25
2022-10-05T16:48:40.059Z,22.22
2022-10-05T16:49:51.353Z,22.11
2022-10-05T16:50:56.410Z,22.02